Terminal Aerodrome Forecast
Issued by NWS Cleveland, OH

Home | Current Version | Previous Version | Text Only | Print | Product List | Glossary Off
Versions: 1 2 3 4 5 6 7 8 9 10 11 12 13 14 15 16 17 18 19 20 21 22 23 24

599
FTUS41 KCLE 082338
TAFTOL
TAF
KTOL 082338Z 0900/0924 21008KT P6SM SCT250
     FM091500 22010KT 6SM -SN SCT015 OVC040
     FM091700 25010KT 2SM -SN BKN008 OVC015
     FM092100 29010KT P6SM OVC015=

USA.gov is the U.S. government's official web portal to all federal, state and local government web resources and services.